sensor_id;sensor_type;location;lat;lon;timestamp;temperature;humidity
770;DHT22;368;48.698;9.116;2023-04-26T00:01:53;6.10;99.90
770;DHT22;368;48.698;9.116;2023-04-26T00:04:22;6.10;99.90
770;DHT22;368;48.698;9.116;2023-04-26T00:06:49;6.00;99.90
770;DHT22;368;48.698;9.116;2023-04-26T00:09:16;6.20;99.90
770;DHT22;368;48.698;9.116;2023-04-26T00:11:44;6.20;99.90
770;DHT22;368;48.698;9.116;2023-04-26T00:14:10;6.00;99.90
770;DHT22;368;48.698;9.116;2023-04-26T00:16:37;5.80;99.90
770;DHT22;368;48.698;9.116;2023-04-26T00:19:05;5.80;99.90
770;DHT22;368;48.698;9.116;2023-04-26T00:21:32;6.00;99.90
770;DHT22;368;48.698;9.116;2023-04-26T00:23:59;6.10;99.90
770;DHT22;368;48.698;9.116;2023-04-26T00:26:25;6.10;99.90
770;DHT22;368;48.698;9.116;2023-04-26T00:28:52;5.80;99.90
770;DHT22;368;48.698;9.116;2023-04-26T00:31:19;6.10;99.90
770;DHT22;368;48.698;9.116;2023-04-26T00:33:46;6.00;99.90
770;DHT22;368;48.698;9.116;2023-04-26T00:36:14;6.10;99.90
770;DHT22;368;48.698;9.116;2023-04-26T00:38:43;6.00;99.90
770;DHT22;368;48.698;9.116;2023-04-26T00:41:10;6.10;99.90
770;DHT22;368;48.698;9.116;2023-04-26T00:43:37;6.00;99.90
770;DHT22;368;48.698;9.116;2023-04-26T00:46:04;5.90;99.90
770;DHT22;368;48.698;9.116;2023-04-26T00:48:32;5.80;99.90
770;DHT22;368;48.698;9.116;2023-04-26T00:50:59;6.00;99.90
770;DHT22;368;48.698;9.116;2023-04-26T00:53:28;5.70;99.90
770;DHT22;368;48.698;9.116;2023-04-26T00:55:55;5.90;99.90
770;DHT22;368;48.698;9.116;2023-04-26T00:58:22;5.80;99.90
770;DHT22;368;48.698;9.116;2023-04-26T01:00:49;5.80;99.90
770;DHT22;368;48.698;9.116;2023-04-26T01:03:16;5.80;99.90
770;DHT22;368;48.698;9.116;2023-04-26T01:05:43;5.90;99.90
770;DHT22;368;48.698;9.116;2023-04-26T01:08:10;5.90;99.90
770;DHT22;368;48.698;9.116;2023-04-26T01:10:39;5.70;99.90
770;DHT22;368;48.698;9.116;2023-04-26T01:13:06;5.70;99.90
770;DHT22;368;48.698;9.116;2023-04-26T01:15:34;5.80;99.90
770;DHT22;368;48.698;9.116;2023-04-26T01:18:01;5.60;99.90
770;DHT22;368;48.698;9.116;2023-04-26T01:20:28;5.60;99.90
770;DHT22;368;48.698;9.116;2023-04-26T01:22:56;6.00;99.90
770;DHT22;368;48.698;9.116;2023-04-26T01:25:23;5.90;99.90
770;DHT22;368;48.698;9.116;2023-04-26T01:27:49;5.60;99.90
770;DHT22;368;48.698;9.116;2023-04-26T01:30:16;5.50;99.90
770;DHT22;368;48.698;9.116;2023-04-26T01:32:43;5.30;99.90
770;DHT22;368;48.698;9.116;2023-04-26T01:35:10;5.30;99.90
770;DHT22;368;48.698;9.116;2023-04-26T01:37:37;5.10;99.90
770;DHT22;368;48.698;9.116;2023-04-26T01:40:07;5.10;99.90
770;DHT22;368;48.698;9.116;2023-04-26T01:42:34;5.10;99.90
770;DHT22;368;48.698;9.116;2023-04-26T01:45:01;5.00;99.90
770;DHT22;368;48.698;9.116;2023-04-26T01:47:28;4.70;99.90
770;DHT22;368;48.698;9.116;2023-04-26T01:49:55;5.00;99.90
770;DHT22;368;48.698;9.116;2023-04-26T01:52:21;5.10;99.90
770;DHT22;368;48.698;9.116;2023-04-26T01:54:48;5.00;99.90
770;DHT22;368;48.698;9.116;2023-04-26T01:57:17;4.90;99.90
770;DHT22;368;48.698;9.116;2023-04-26T01:59:43;5.00;99.90
770;DHT22;368;48.698;9.116;2023-04-26T02:02:10;4.80;99.90
770;DHT22;368;48.698;9.116;2023-04-26T02:04:37;4.80;99.90
770;DHT22;368;48.698;9.116;2023-04-26T02:07:04;4.90;99.90
770;DHT22;368;48.698;9.116;2023-04-26T02:09:30;4.70;99.90
770;DHT22;368;48.698;9.116;2023-04-26T02:11:57;4.30;99.90
770;DHT22;368;48.698;9.116;2023-04-26T02:14:25;4.40;99.90
770;DHT22;368;48.698;9.116;2023-04-26T02:16:52;4.30;99.90
770;DHT22;368;48.698;9.116;2023-04-26T02:19:19;4.30;99.90
770;DHT22;368;48.698;9.116;2023-04-26T02:21:50;4.30;99.90
770;DHT22;368;48.698;9.116;2023-04-26T02:24:17;4.30;99.90
770;DHT22;368;48.698;9.116;2023-04-26T02:26:45;4.30;99.90
770;DHT22;368;48.698;9.116;2023-04-26T02:29:13;4.10;99.90
770;DHT22;368;48.698;9.116;2023-04-26T02:31:41;4.10;99.90
770;DHT22;368;48.698;9.116;2023-04-26T02:34:08;4.10;99.90
770;DHT22;368;48.698;9.116;2023-04-26T02:36:35;4.10;99.90
770;DHT22;368;48.698;9.116;2023-04-26T02:39:02;4.00;99.90
770;DHT22;368;48.698;9.116;2023-04-26T02:41:30;4.30;99.90
770;DHT22;368;48.698;9.116;2023-04-26T02:43:58;4.10;99.90
770;DHT22;368;48.698;9.116;2023-04-26T02:46:25;4.10;99.90
770;DHT22;368;48.698;9.116;2023-04-26T02:48:53;4.10;99.90
770;DHT22;368;48.698;9.116;2023-04-26T02:51:20;4.20;99.90
770;DHT22;368;48.698;9.116;2023-04-26T02:53:46;4.30;99.90
770;DHT22;368;48.698;9.116;2023-04-26T02:56:13;4.30;99.90
770;DHT22;368;48.698;9.116;2023-04-26T02:58:40;4.10;99.90
770;DHT22;368;48.698;9.116;2023-04-26T03:01:07;3.80;99.90
770;DHT22;368;48.698;9.116;2023-04-26T03:03:34;4.30;99.90
770;DHT22;368;48.698;9.116;2023-04-26T03:06:03;4.20;99.90
770;DHT22;368;48.698;9.116;2023-04-26T03:08:30;4.30;99.90
770;DHT22;368;48.698;9.116;2023-04-26T03:10:59;4.20;99.90
770;DHT22;368;48.698;9.116;2023-04-26T03:13:26;4.20;99.90
770;DHT22;368;48.698;9.116;2023-04-26T03:15:53;4.50;99.90
770;DHT22;368;48.698;9.116;2023-04-26T03:18:19;4.30;99.90
770;DHT22;368;48.698;9.116;2023-04-26T03:20:46;4.20;99.90
770;DHT22;368;48.698;9.116;2023-04-26T03:23:14;3.90;99.90
770;DHT22;368;48.698;9.116;2023-04-26T03:25:41;3.90;99.90
770;DHT22;368;48.698;9.116;2023-04-26T03:28:08;3.60;99.90
770;DHT22;368;48.698;9.116;2023-04-26T03:30:35;3.90;99.90
770;DHT22;368;48.698;9.116;2023-04-26T03:33:01;3.90;99.90
770;DHT22;368;48.698;9.116;2023-04-26T03:35:28;4.10;99.90
770;DHT22;368;48.698;9.116;2023-04-26T03:37:56;4.10;99.90
770;DHT22;368;48.698;9.116;2023-04-26T03:40:24;3.80;99.90
770;DHT22;368;48.698;9.116;2023-04-26T03:42:50;3.90;99.90
770;DHT22;368;48.698;9.116;2023-04-26T03:45:17;3.50;99.90
770;DHT22;368;48.698;9.116;2023-04-26T03:47:45;3.30;99.90
770;DHT22;368;48.698;9.116;2023-04-26T03:50:12;3.60;99.90
770;DHT22;368;48.698;9.116;2023-04-26T03:52:39;3.20;99.90
770;DHT22;368;48.698;9.116;2023-04-26T03:55:07;3.10;99.90
770;DHT22;368;48.698;9.116;2023-04-26T03:57:37;3.30;99.90
770;DHT22;368;48.698;9.116;2023-04-26T04:00:05;3.20;99.90
770;DHT22;368;48.698;9.116;2023-04-26T04:02:34;3.20;99.90
770;DHT22;368;48.698;9.116;2023-04-26T04:05:01;3.20;99.90
770;DHT22;368;48.698;9.116;2023-04-26T04:07:27;3.00;99.90
770;DHT22;368;48.698;9.116;2023-04-26T04:09:55;3.20;99.90
770;DHT22;368;48.698;9.116;2023-04-26T04:12:21;2.90;99.90
770;DHT22;368;48.698;9.116;2023-04-26T04:14:50;2.90;99.90
770;DHT22;368;48.698;9.116;2023-04-26T04:17:17;2.80;99.90
770;DHT22;368;48.698;9.116;2023-04-26T04:19:44;2.80;99.90
770;DHT22;368;48.698;9.116;2023-04-26T04:22:10;2.80;99.90
770;DHT22;368;48.698;9.116;2023-04-26T04:24:37;2.90;99.90
770;DHT22;368;48.698;9.116;2023-04-26T04:27:05;2.80;99.90
770;DHT22;368;48.698;9.116;2023-04-26T04:29:32;2.80;99.90
770;DHT22;368;48.698;9.116;2023-04-26T04:32:00;2.90;99.90
770;DHT22;368;48.698;9.116;2023-04-26T04:34:33;2.80;99.90
770;DHT22;368;48.698;9.116;2023-04-26T04:37:02;2.90;99.90
770;DHT22;368;48.698;9.116;2023-04-26T04:39:29;3.00;99.90
770;DHT22;368;48.698;9.116;2023-04-26T04:41:56;3.00;99.90
770;DHT22;368;48.698;9.116;2023-04-26T04:44:23;3.20;99.90
770;DHT22;368;48.698;9.116;2023-04-26T04:46:51;3.30;99.90
770;DHT22;368;48.698;9.116;2023-04-26T04:49:19;3.50;99.90
770;DHT22;368;48.698;9.116;2023-04-26T04:51:46;3.50;99.90
770;DHT22;368;48.698;9.116;2023-04-26T04:54:16;3.50;99.90
770;DHT22;368;48.698;9.116;2023-04-26T04:56:43;3.60;99.90
770;DHT22;368;48.698;9.116;2023-04-26T04:59:10;3.30;99.90
770;DHT22;368;48.698;9.116;2023-04-26T05:01:37;3.50;99.90
770;DHT22;368;48.698;9.116;2023-04-26T05:04:05;3.60;99.90
770;DHT22;368;48.698;9.116;2023-04-26T05:06:33;4.00;99.90
770;DHT22;368;48.698;9.116;2023-04-26T05:09:00;4.00;99.90
770;DHT22;368;48.698;9.116;2023-04-26T05:11:29;3.90;99.90
770;DHT22;368;48.698;9.116;2023-04-26T05:13:56;4.00;99.90
770;DHT22;368;48.698;9.116;2023-04-26T05:16:23;3.90;99.90
770;DHT22;368;48.698;9.116;2023-04-26T05:18:50;4.10;99.90
770;DHT22;368;48.698;9.116;2023-04-26T05:21:17;4.20;99.90
770;DHT22;368;48.698;9.116;2023-04-26T05:23:45;4.50;99.90
770;DHT22;368;48.698;9.116;2023-04-26T05:26:14;4.40;99.90
770;DHT22;368;48.698;9.116;2023-04-26T05:28:41;4.60;99.90
770;DHT22;368;48.698;9.116;2023-04-26T05:31:08;4.70;99.90
770;DHT22;368;48.698;9.116;2023-04-26T05:33:35;5.10;99.90
770;DHT22;368;48.698;9.116;2023-04-26T05:36:02;5.60;99.90
770;DHT22;368;48.698;9.116;2023-04-26T05:38:29;5.30;99.90
770;DHT22;368;48.698;9.116;2023-04-26T05:40:58;5.50;99.90
770;DHT22;368;48.698;9.116;2023-04-26T05:43:24;5.40;99.90
770;DHT22;368;48.698;9.116;2023-04-26T05:45:52;5.60;99.90
770;DHT22;368;48.698;9.116;2023-04-26T05:48:19;5.70;99.90
770;DHT22;368;48.698;9.116;2023-04-26T05:50:46;5.70;99.90
770;DHT22;368;48.698;9.116;2023-04-26T05:53:13;6.10;99.90
770;DHT22;368;48.698;9.116;2023-04-26T05:55:40;5.70;99.90
770;DHT22;368;48.698;9.116;2023-04-26T05:58:09;6.30;99.90
770;DHT22;368;48.698;9.116;2023-04-26T06:00:37;6.60;99.90
770;DHT22;368;48.698;9.116;2023-04-26T06:03:04;6.90;99.90
770;DHT22;368;48.698;9.116;2023-04-26T06:05:31;7.10;99.90
770;DHT22;368;48.698;9.116;2023-04-26T06:07:58;7.90;99.90
770;DHT22;368;48.698;9.116;2023-04-26T06:10:26;8.20;99.90
770;DHT22;368;48.698;9.116;2023-04-26T06:12:53;8.20;99.90
770;DHT22;368;48.698;9.116;2023-04-26T06:15:21;8.50;99.90
770;DHT22;368;48.698;9.116;2023-04-26T06:17:48;8.90;99.90
770;DHT22;368;48.698;9.116;2023-04-26T06:20:15;9.00;99.90
770;DHT22;368;48.698;9.116;2023-04-26T06:22:42;9.30;99.90
770;DHT22;368;48.698;9.116;2023-04-26T06:25:09;8.40;99.90
770;DHT22;368;48.698;9.116;2023-04-26T06:27:35;8.30;99.90
770;DHT22;368;48.698;9.116;2023-04-26T06:30:04;9.10;99.90
770;DHT22;368;48.698;9.116;2023-04-26T06:32:34;9.10;99.90
770;DHT22;368;48.698;9.116;2023-04-26T06:35:01;10.20;99.10
770;DHT22;368;48.698;9.116;2023-04-26T06:37:28;10.40;97.30
770;DHT22;368;48.698;9.116;2023-04-26T06:39:54;10.30;96.50
770;DHT22;368;48.698;9.116;2023-04-26T06:42:21;11.10;94.70
770;DHT22;368;48.698;9.116;2023-04-26T06:44:48;11.70;94.00
770;DHT22;368;48.698;9.116;2023-04-26T06:47:15;11.90;93.40
770;DHT22;368;48.698;9.116;2023-04-26T06:49:43;11.00;92.10
770;DHT22;368;48.698;9.116;2023-04-26T06:52:10;9.90;92.90
770;DHT22;368;48.698;9.116;2023-04-26T06:54:37;9.80;94.40
770;DHT22;368;48.698;9.116;2023-04-26T06:57:03;10.30;94.40
770;DHT22;368;48.698;9.116;2023-04-26T06:59:30;10.10;94.10
770;DHT22;368;48.698;9.116;2023-04-26T07:01:57;9.70;94.90
770;DHT22;368;48.698;9.116;2023-04-26T07:04:25;10.30;94.50
770;DHT22;368;48.698;9.116;2023-04-26T07:06:53;10.50;94.20
770;DHT22;368;48.698;9.116;2023-04-26T07:09:21;11.00;94.60
770;DHT22;368;48.698;9.116;2023-04-26T07:11:48;11.40;94.00
770;DHT22;368;48.698;9.116;2023-04-26T07:14:15;11.70;91.80
770;DHT22;368;48.698;9.116;2023-04-26T07:16:45;13.00;91.00
770;DHT22;368;48.698;9.116;2023-04-26T07:19:11;13.40;88.70
770;DHT22;368;48.698;9.116;2023-04-26T07:21:38;12.50;83.50
770;DHT22;368;48.698;9.116;2023-04-26T07:24:07;12.30;82.40
770;DHT22;368;48.698;9.116;2023-04-26T07:26:34;11.40;86.10
770;DHT22;368;48.698;9.116;2023-04-26T07:29:01;11.30;85.50
770;DHT22;368;48.698;9.116;2023-04-26T07:31:29;12.50;86.80
770;DHT22;368;48.698;9.116;2023-04-26T07:33:57;12.90;83.80
770;DHT22;368;48.698;9.116;2023-04-26T07:36:24;14.30;81.90
770;DHT22;368;48.698;9.116;2023-04-26T07:38:52;13.20;78.40
770;DHT22;368;48.698;9.116;2023-04-26T07:41:20;13.30;79.60
770;DHT22;368;48.698;9.116;2023-04-26T07:43:47;13.40;76.30
770;DHT22;368;48.698;9.116;2023-04-26T07:46:14;12.90;79.70
770;DHT22;368;48.698;9.116;2023-04-26T07:48:41;13.30;74.90
770;DHT22;368;48.698;9.116;2023-04-26T07:51:09;13.30;79.10
770;DHT22;368;48.698;9.116;2023-04-26T07:53:36;13.80;75.90
770;DHT22;368;48.698;9.116;2023-04-26T07:56:04;13.30;81.00
770;DHT22;368;48.698;9.116;2023-04-26T07:58:33;14.30;80.00
770;DHT22;368;48.698;9.116;2023-04-26T08:01:00;13.70;80.50
770;DHT22;368;48.698;9.116;2023-04-26T08:03:28;14.40;79.00
770;DHT22;368;48.698;9.116;2023-04-26T08:05:55;14.20;77.70
770;DHT22;368;48.698;9.116;2023-04-26T08:08:24;14.50;78.10
770;DHT22;368;48.698;9.116;2023-04-26T08:10:51;13.10;78.50
770;DHT22;368;48.698;9.116;2023-04-26T08:13:18;13.40;78.30
770;DHT22;368;48.698;9.116;2023-04-26T08:15:47;15.50;77.30
770;DHT22;368;48.698;9.116;2023-04-26T08:18:14;15.20;76.20
770;DHT22;368;48.698;9.116;2023-04-26T08:20:40;15.80;72.30
770;DHT22;368;48.698;9.116;2023-04-26T08:23:07;16.00;75.20
770;DHT22;368;48.698;9.116;2023-04-26T08:25:34;16.50;73.00
770;DHT22;368;48.698;9.116;2023-04-26T08:28:01;16.60;71.30
770;DHT22;368;48.698;9.116;2023-04-26T08:30:28;17.10;70.50
770;DHT22;368;48.698;9.116;2023-04-26T08:32:57;16.90;69.70
770;DHT22;368;48.698;9.116;2023-04-26T08:35:23;15.10;71.70
770;DHT22;368;48.698;9.116;2023-04-26T08:37:50;15.10;73.70
770;DHT22;368;48.698;9.116;2023-04-26T08:40:22;14.20;70.20
770;DHT22;368;48.698;9.116;2023-04-26T08:42:51;13.50;76.10
770;DHT22;368;48.698;9.116;2023-04-26T08:45:19;14.00;75.70
770;DHT22;368;48.698;9.116;2023-04-26T08:47:48;13.70;77.00
770;DHT22;368;48.698;9.116;2023-04-26T08:50:18;13.50;77.80
770;DHT22;368;48.698;9.116;2023-04-26T08:52:47;12.90;80.40
770;DHT22;368;48.698;9.116;2023-04-26T08:55:15;12.20;77.50
770;DHT22;368;48.698;9.116;2023-04-26T08:57:44;11.60;79.50
770;DHT22;368;48.698;9.116;2023-04-26T09:00:12;11.40;81.90
770;DHT22;368;48.698;9.116;2023-04-26T09:02:40;11.10;80.40
770;DHT22;368;48.698;9.116;2023-04-26T09:05:09;11.60;81.40
770;DHT22;368;48.698;9.116;2023-04-26T09:07:39;11.50;79.50
770;DHT22;368;48.698;9.116;2023-04-26T09:10:09;10.60;81.40
770;DHT22;368;48.698;9.116;2023-04-26T09:12:36;10.70;80.90
770;DHT22;368;48.698;9.116;2023-04-26T09:15:04;11.00;82.60
770;DHT22;368;48.698;9.116;2023-04-26T09:17:33;11.20;82.60
770;DHT22;368;48.698;9.116;2023-04-26T09:20:09;11.50;82.00
770;DHT22;368;48.698;9.116;2023-04-26T09:22:44;11.20;81.30
770;DHT22;368;48.698;9.116;2023-04-26T09:25:11;10.60;84.60
770;DHT22;368;48.698;9.116;2023-04-26T09:27:41;11.20;86.70
770;DHT22;368;48.698;9.116;2023-04-26T09:30:11;10.90;83.80
770;DHT22;368;48.698;9.116;2023-04-26T09:32:49;10.70;81.80
770;DHT22;368;48.698;9.116;2023-04-26T09:35:28;10.80;85.10
770;DHT22;368;48.698;9.116;2023-04-26T09:37:57;10.70;83.50
770;DHT22;368;48.698;9.116;2023-04-26T09:40:26;11.20;83.30
770;DHT22;368;48.698;9.116;2023-04-26T09:43:01;11.80;83.20
770;DHT22;368;48.698;9.116;2023-04-26T09:45:30;12.40;83.20
770;DHT22;368;48.698;9.116;2023-04-26T09:48:12;13.70;81.70
770;DHT22;368;48.698;9.116;2023-04-26T09:50:41;14.00;74.60
770;DHT22;368;48.698;9.116;2023-04-26T09:53:10;14.40;77.60
770;DHT22;368;48.698;9.116;2023-04-26T09:55:37;14.50;74.30
770;DHT22;368;48.698;9.116;2023-04-26T09:58:08;14.70;72.80
770;DHT22;368;48.698;9.116;2023-04-26T10:00:37;14.60;74.50
770;DHT22;368;48.698;9.116;2023-04-26T10:03:07;13.70;70.50
770;DHT22;368;48.698;9.116;2023-04-26T10:05:35;13.20;76.70
770;DHT22;368;48.698;9.116;2023-04-26T10:08:04;13.00;79.50
770;DHT22;368;48.698;9.116;2023-04-26T10:10:33;12.60;81.10
770;DHT22;368;48.698;9.116;2023-04-26T10:13:00;12.50;79.50
770;DHT22;368;48.698;9.116;2023-04-26T10:15:28;12.50;83.30
770;DHT22;368;48.698;9.116;2023-04-26T10:17:55;11.80;82.70
770;DHT22;368;48.698;9.116;2023-04-26T10:20:23;11.30;85.50
770;DHT22;368;48.698;9.116;2023-04-26T10:22:54;11.60;86.20
770;DHT22;368;48.698;9.116;2023-04-26T10:25:35;12.00;83.30
770;DHT22;368;48.698;9.116;2023-04-26T10:28:03;12.10;82.10
770;DHT22;368;48.698;9.116;2023-04-26T10:30:30;12.30;81.90
770;DHT22;368;48.698;9.116;2023-04-26T10:33:15;13.10;78.70
770;DHT22;368;48.698;9.116;2023-04-26T10:36:08;13.30;77.70
770;DHT22;368;48.698;9.116;2023-04-26T10:38:37;14.00;76.60
770;DHT22;368;48.698;9.116;2023-04-26T10:41:28;13.80;78.30
770;DHT22;368;48.698;9.116;2023-04-26T10:43:56;13.90;77.80
770;DHT22;368;48.698;9.116;2023-04-26T10:46:35;12.80;79.50
770;DHT22;368;48.698;9.116;2023-04-26T10:49:16;12.50;79.70
770;DHT22;368;48.698;9.116;2023-04-26T10:52:09;12.10;80.90
770;DHT22;368;48.698;9.116;2023-04-26T10:54:55;12.10;82.00
770;DHT22;368;48.698;9.116;2023-04-26T11:00:19;12.30;79.80
770;DHT22;368;48.698;9.116;2023-04-26T11:02:56;12.20;80.50
770;DHT22;368;48.698;9.116;2023-04-26T11:05:38;12.30;81.70
770;DHT22;368;48.698;9.116;2023-04-26T11:08:07;12.60;79.80
770;DHT22;368;48.698;9.116;2023-04-26T11:10:41;12.80;77.00
770;DHT22;368;48.698;9.116;2023-04-26T11:13:11;12.70;75.80
770;DHT22;368;48.698;9.116;2023-04-26T11:15:38;13.20;75.50
770;DHT22;368;48.698;9.116;2023-04-26T11:18:05;14.90;73.80
770;DHT22;368;48.698;9.116;2023-04-26T11:20:32;15.40;72.50
770;DHT22;368;48.698;9.116;2023-04-26T11:23:00;15.90;74.00
770;DHT22;368;48.698;9.116;2023-04-26T11:25:28;15.40;70.30
770;DHT22;368;48.698;9.116;2023-04-26T11:27:59;14.60;76.10
770;DHT22;368;48.698;9.116;2023-04-26T11:30:29;14.40;75.00
770;DHT22;368;48.698;9.116;2023-04-26T11:32:56;14.70;75.10
770;DHT22;368;48.698;9.116;2023-04-26T11:35:23;14.90;71.70
770;DHT22;368;48.698;9.116;2023-04-26T11:37:52;16.00;71.90
770;DHT22;368;48.698;9.116;2023-04-26T11:40:19;16.30;70.40
770;DHT22;368;48.698;9.116;2023-04-26T11:42:46;14.20;74.90
770;DHT22;368;48.698;9.116;2023-04-26T11:45:16;14.30;75.70
770;DHT22;368;48.698;9.116;2023-04-26T11:47:45;14.10;74.40
770;DHT22;368;48.698;9.116;2023-04-26T11:50:13;14.60;75.20
770;DHT22;368;48.698;9.116;2023-04-26T11:52:40;14.90;75.30
770;DHT22;368;48.698;9.116;2023-04-26T11:55:08;14.60;76.00
770;DHT22;368;48.698;9.116;2023-04-26T11:57:35;15.20;74.60
770;DHT22;368;48.698;9.116;2023-04-26T12:00:10;16.40;67.70
770;DHT22;368;48.698;9.116;2023-04-26T12:02:39;13.60;68.80
770;DHT22;368;48.698;9.116;2023-04-26T12:05:08;14.90;70.50
770;DHT22;368;48.698;9.116;2023-04-26T12:07:36;16.80;69.00
770;DHT22;368;48.698;9.116;2023-04-26T12:10:16;18.40;66.40
770;DHT22;368;48.698;9.116;2023-04-26T12:12:46;18.70;64.90
770;DHT22;368;48.698;9.116;2023-04-26T12:15:13;19.60;62.70
770;DHT22;368;48.698;9.116;2023-04-26T12:17:41;20.70;61.70
770;DHT22;368;48.698;9.116;2023-04-26T12:20:18;19.30;59.50
770;DHT22;368;48.698;9.116;2023-04-26T12:22:57;16.50;59.80
770;DHT22;368;48.698;9.116;2023-04-26T12:25:24;16.30;65.60
770;DHT22;368;48.698;9.116;2023-04-26T12:27:50;14.60;65.90
770;DHT22;368;48.698;9.116;2023-04-26T12:30:17;15.80;68.40
770;DHT22;368;48.698;9.116;2023-04-26T12:32:44;18.50;61.30
770;DHT22;368;48.698;9.116;2023-04-26T12:35:11;19.40;61.50
770;DHT22;368;48.698;9.116;2023-04-26T12:37:39;19.20;64.50
770;DHT22;368;48.698;9.116;2023-04-26T12:40:07;18.80;59.20
770;DHT22;368;48.698;9.116;2023-04-26T12:42:34;17.80;60.80
770;DHT22;368;48.698;9.116;2023-04-26T12:45:01;16.90;64.90
770;DHT22;368;48.698;9.116;2023-04-26T12:47:29;15.60;66.20
770;DHT22;368;48.698;9.116;2023-04-26T12:49:56;15.60;64.80
770;DHT22;368;48.698;9.116;2023-04-26T12:52:25;16.90;67.60
770;DHT22;368;48.698;9.116;2023-04-26T12:54:53;18.80;60.60
770;DHT22;368;48.698;9.116;2023-04-26T12:57:20;17.90;58.00
770;DHT22;368;48.698;9.116;2023-04-26T12:59:47;16.90;60.50
770;DHT22;368;48.698;9.116;2023-04-26T13:02:14;15.70;64.40
770;DHT22;368;48.698;9.116;2023-04-26T13:04:40;16.10;66.20
770;DHT22;368;48.698;9.116;2023-04-26T13:07:07;15.00;66.30
770;DHT22;368;48.698;9.116;2023-04-26T13:09:34;15.20;64.30
770;DHT22;368;48.698;9.116;2023-04-26T13:12:03;16.20;66.40
770;DHT22;368;48.698;9.116;2023-04-26T13:14:30;18.80;61.50
770;DHT22;368;48.698;9.116;2023-04-26T13:16:57;20.20;56.60
770;DHT22;368;48.698;9.116;2023-04-26T13:19:24;19.40;55.40
770;DHT22;368;48.698;9.116;2023-04-26T13:21:50;21.10;56.60
770;DHT22;368;48.698;9.116;2023-04-26T13:24:18;23.30;51.10
770;DHT22;368;48.698;9.116;2023-04-26T13:26:45;22.20;50.80
770;DHT22;368;48.698;9.116;2023-04-26T13:29:13;20.60;49.50
770;DHT22;368;48.698;9.116;2023-04-26T13:31:40;19.80;55.60
770;DHT22;368;48.698;9.116;2023-04-26T13:34:07;21.70;53.80
770;DHT22;368;48.698;9.116;2023-04-26T13:36:34;22.00;47.40
770;DHT22;368;48.698;9.116;2023-04-26T13:39:01;20.10;48.60
770;DHT22;368;48.698;9.116;2023-04-26T13:41:29;18.80;49.40
770;DHT22;368;48.698;9.116;2023-04-26T13:43:58;18.80;52.90
770;DHT22;368;48.698;9.116;2023-04-26T13:46:27;19.50;52.60
770;DHT22;368;48.698;9.116;2023-04-26T13:48:54;20.30;51.00
770;DHT22;368;48.698;9.116;2023-04-26T13:51:21;19.10;51.00
770;DHT22;368;48.698;9.116;2023-04-26T13:53:49;17.60;53.20
770;DHT22;368;48.698;9.116;2023-04-26T13:56:16;17.10;53.20
770;DHT22;368;48.698;9.116;2023-04-26T13:58:44;16.30;55.70
770;DHT22;368;48.698;9.116;2023-04-26T14:01:11;15.80;55.60
770;DHT22;368;48.698;9.116;2023-04-26T14:03:39;15.40;57.10
770;DHT22;368;48.698;9.116;2023-04-26T14:06:07;15.80;55.70
770;DHT22;368;48.698;9.116;2023-04-26T14:08:34;15.60;56.90
770;DHT22;368;48.698;9.116;2023-04-26T14:11:01;16.80;55.80
770;DHT22;368;48.698;9.116;2023-04-26T14:13:27;16.70;55.90
770;DHT22;368;48.698;9.116;2023-04-26T14:15:54;17.20;54.70
770;DHT22;368;48.698;9.116;2023-04-26T14:18:21;16.90;54.20
770;DHT22;368;48.698;9.116;2023-04-26T14:20:49;15.60;54.10
770;DHT22;368;48.698;9.116;2023-04-26T14:23:16;16.00;57.20
770;DHT22;368;48.698;9.116;2023-04-26T14:25:43;15.60;56.40
770;DHT22;368;48.698;9.116;2023-04-26T14:28:10;14.50;55.90
770;DHT22;368;48.698;9.116;2023-04-26T14:30:37;13.90;57.20
770;DHT22;368;48.698;9.116;2023-04-26T14:33:03;13.60;58.10
770;DHT22;368;48.698;9.116;2023-04-26T14:35:30;13.60;59.10
770;DHT22;368;48.698;9.116;2023-04-26T14:37:58;14.20;59.80
770;DHT22;368;48.698;9.116;2023-04-26T14:40:26;14.30;59.60
770;DHT22;368;48.698;9.116;2023-04-26T14:42:52;15.20;58.00
770;DHT22;368;48.698;9.116;2023-04-26T14:45:19;15.20;57.10
770;DHT22;368;48.698;9.116;2023-04-26T14:47:46;15.30;60.90
770;DHT22;368;48.698;9.116;2023-04-26T14:50:13;15.50;58.80
770;DHT22;368;48.698;9.116;2023-04-26T14:52:40;15.00;59.70
770;DHT22;368;48.698;9.116;2023-04-26T14:55:08;15.60;59.20
770;DHT22;368;48.698;9.116;2023-04-26T14:57:35;15.50;59.40
770;DHT22;368;48.698;9.116;2023-04-26T15:00:03;15.10;60.80
770;DHT22;368;48.698;9.116;2023-04-26T15:02:33;14.40;62.10
770;DHT22;368;48.698;9.116;2023-04-26T15:04:59;14.10;65.40
770;DHT22;368;48.698;9.116;2023-04-26T15:07:28;14.10;65.00
770;DHT22;368;48.698;9.116;2023-04-26T15:09:55;14.20;65.00
770;DHT22;368;48.698;9.116;2023-04-26T15:12:23;14.70;63.80
770;DHT22;368;48.698;9.116;2023-04-26T15:14:50;14.30;64.10
770;DHT22;368;48.698;9.116;2023-04-26T15:17:23;14.50;66.80
770;DHT22;368;48.698;9.116;2023-04-26T15:19:50;14.70;65.10
770;DHT22;368;48.698;9.116;2023-04-26T15:22:17;14.30;65.40
770;DHT22;368;48.698;9.116;2023-04-26T15:24:44;14.40;65.40
770;DHT22;368;48.698;9.116;2023-04-26T15:27:11;14.50;63.00
770;DHT22;368;48.698;9.116;2023-04-26T15:29:39;14.00;65.40
770;DHT22;368;48.698;9.116;2023-04-26T15:32:06;14.10;64.60
770;DHT22;368;48.698;9.116;2023-04-26T15:34:38;14.00;66.20
770;DHT22;368;48.698;9.116;2023-04-26T15:37:07;14.70;67.60
770;DHT22;368;48.698;9.116;2023-04-26T15:39:35;14.30;66.40
770;DHT22;368;48.698;9.116;2023-04-26T15:42:02;14.00;69.50
770;DHT22;368;48.698;9.116;2023-04-26T15:44:30;14.30;62.90
770;DHT22;368;48.698;9.116;2023-04-26T15:46:58;13.60;71.00
770;DHT22;368;48.698;9.116;2023-04-26T15:49:26;13.60;71.20
770;DHT22;368;48.698;9.116;2023-04-26T15:51:53;13.80;70.80
770;DHT22;368;48.698;9.116;2023-04-26T15:54:20;13.30;70.20
770;DHT22;368;48.698;9.116;2023-04-26T15:56:46;13.20;69.90
770;DHT22;368;48.698;9.116;2023-04-26T15:59:13;13.20;68.30
770;DHT22;368;48.698;9.116;2023-04-26T16:01:40;12.90;72.70
770;DHT22;368;48.698;9.116;2023-04-26T16:04:08;13.20;70.40
770;DHT22;368;48.698;9.116;2023-04-26T16:06:36;13.00;72.10
770;DHT22;368;48.698;9.116;2023-04-26T16:09:03;13.30;73.70
770;DHT22;368;48.698;9.116;2023-04-26T16:11:33;13.10;73.60
770;DHT22;368;48.698;9.116;2023-04-26T16:14:00;12.90;72.70
770;DHT22;368;48.698;9.116;2023-04-26T16:16:27;12.20;75.20
770;DHT22;368;48.698;9.116;2023-04-26T16:18:54;12.60;75.50
770;DHT22;368;48.698;9.116;2023-04-26T16:21:22;12.40;74.50
770;DHT22;368;48.698;9.116;2023-04-26T16:23:49;12.10;75.50
770;DHT22;368;48.698;9.116;2023-04-26T16:26:16;12.20;76.80
770;DHT22;368;48.698;9.116;2023-04-26T16:28:43;12.40;76.00
770;DHT22;368;48.698;9.116;2023-04-26T16:31:10;12.30;76.80
770;DHT22;368;48.698;9.116;2023-04-26T16:33:37;12.20;76.70
770;DHT22;368;48.698;9.116;2023-04-26T16:36:04;12.30;77.70
770;DHT22;368;48.698;9.116;2023-04-26T16:38:33;12.20;76.20
770;DHT22;368;48.698;9.116;2023-04-26T16:41:00;12.00;77.50
770;DHT22;368;48.698;9.116;2023-04-26T16:43:27;12.00;78.60
770;DHT22;368;48.698;9.116;2023-04-26T16:45:58;12.00;79.20
770;DHT22;368;48.698;9.116;2023-04-26T16:48:26;11.80;77.30
770;DHT22;368;48.698;9.116;2023-04-26T16:50:53;11.90;79.00